Time;durP1;ratioP1;P1;durP2;ratioP2;P2;SDS_P1;SDS_P2;PMS_P1;PMS_P2;Temp;Humidity;BMP_temperature;BMP_pressure;BME280_temperature;BME280_humidity;BME280_pressure;Samples;Min_cycle;Max_cycle;Signal;HPM_P1;HPM_P2
2023/11/29 00:01:52;;;;;;;13.20;5.10;;;;;;;4.23;100.00;100025.03;103692;1289;60676;-89
2023/11/29 00:04:17;;;;;;;14.70;5.10;;;;;;;4.28;100.00;100016.76;103591;1286;60577;-89
2023/11/29 00:06:43;;;;;;;17.00;4.80;;;;;;;4.31;100.00;100014.85;103299;1285;62040;-89
2023/11/29 00:09:10;;;;;;;11.70;4.80;;;;;;;4.35;100.00;100010.50;103715;1283;60514;-89
2023/11/29 00:11:36;;;;;;;12.90;5.00;;;;;;;4.35;100.00;100002.83;103607;1284;74340;-89
2023/11/29 00:14:01;;;;;;;19.00;5.20;;;;;;;4.38;100.00;100004.17;103241;1301;60504;-91
2023/11/29 00:16:27;;;;;;;15.20;4.80;;;;;;;4.42;100.00;99999.41;103631;1283;60685;-89
2023/11/29 00:18:53;;;;;;;14.50;5.10;;;;;;;4.46;100.00;100001.15;103656;1287;60583;-90
2023/11/29 00:21:18;;;;;;;15.30;5.50;;;;;;;4.47;100.00;99994.44;103479;1288;60580;-89
2023/11/29 00:23:44;;;;;;;11.70;5.10;;;;;;;4.50;100.00;99975.09;103412;1283;60675;-88
2023/11/29 00:26:10;;;;;;;14.90;5.40;;;;;;;4.51;100.00;99973.40;103628;1289;60584;-89
2023/11/29 00:28:35;;;;;;;11.40;5.00;;;;;;;4.53;100.00;99958.83;103632;1287;60546;-88
2023/11/29 00:31:01;;;;;;;9.60;4.70;;;;;;;4.54;100.00;99963.16;103682;1283;60580;-88
2023/11/29 00:33:27;;;;;;;16.00;5.20;;;;;;;4.55;100.00;99954.75;103760;1283;60840;-89
2023/11/29 00:35:54;;;;;;;14.50;5.10;;;;;;;4.58;100.00;99953.27;103934;1287;60468;-88
2023/11/29 00:38:20;;;;;;;14.90;5.00;;;;;;;4.62;100.00;99945.77;103810;1287;60500;-89
2023/11/29 00:40:46;;;;;;;12.00;5.00;;;;;;;4.65;100.00;99946.58;103663;1283;60489;-88
2023/11/29 00:43:12;;;;;;;11.90;4.40;;;;;;;4.66;100.00;99944.73;103633;1283;60718;-89
2023/11/29 00:45:37;;;;;;;14.70;4.90;;;;;;;4.70;100.00;99942.09;103688;1283;60493;-89
2023/11/29 00:48:03;;;;;;;15.60;4.80;;;;;;;4.73;100.00;99936.70;103732;1286;62218;-87
2023/11/29 00:50:29;;;;;;;14.30;4.80;;;;;;;4.79;100.00;99939.16;103631;1283;60489;-89
2023/11/29 00:52:54;;;;;;;13.50;4.10;;;;;;;4.83;100.00;99945.86;103928;1284;74744;-88
2023/11/29 00:55:20;;;;;;;18.10;4.30;;;;;;;4.84;100.00;99946.29;103711;1285;60588;-88
2023/11/29 00:57:46;;;;;;;21.40;4.80;;;;;;;4.86;100.00;99936.79;103748;1284;60529;-88
2023/11/29 01:00:12;;;;;;;11.50;4.40;;;;;;;4.87;100.00;99935.09;103608;1290;60912;-88
2023/11/29 01:02:37;;;;;;;15.90;4.30;;;;;;;4.88;100.00;99936.55;103542;1286;60684;-89
2023/11/29 01:05:03;;;;;;;13.50;4.60;;;;;;;4.89;100.00;99925.43;103401;1288;60587;-87
2023/11/29 01:07:29;;;;;;;13.10;4.30;;;;;;;4.91;100.00;99925.19;103302;1285;61811;-88
2023/11/29 01:09:55;;;;;;;16.80;5.50;;;;;;;4.92;100.00;99918.14;103223;1289;60622;-89
2023/11/29 01:12:20;;;;;;;14.40;4.70;;;;;;;4.90;100.00;99910.02;103144;1286;60570;-88
2023/11/29 01:14:46;;;;;;;12.00;4.20;;;;;;;4.93;100.00;99909.00;103355;1286;60599;-87
2023/11/29 01:17:11;;;;;;;15.80;4.60;;;;;;;4.93;100.00;99913.90;103650;1290;60538;-88
2023/11/29 01:19:37;;;;;;;16.20;4.70;;;;;;;4.97;100.00;99901.23;103753;1286;60602;-87
2023/11/29 01:22:04;;;;;;;13.00;4.40;;;;;;;4.99;100.00;99901.89;103435;1286;61022;-89
2023/11/29 01:24:30;;;;;;;13.70;5.00;;;;;;;5.03;100.00;99897.37;103594;1287;60635;-89
2023/11/29 01:26:55;;;;;;;14.20;4.60;;;;;;;5.06;100.00;99893.89;103558;1289;62391;-88
2023/11/29 01:29:22;;;;;;;13.60;4.40;;;;;;;5.12;100.00;99883.43;103147;1295;60711;-88
2023/11/29 01:31:48;;;;;;;15.90;4.40;;;;;;;5.16;100.00;99880.72;102811;1287;60594;-88
2023/11/29 01:34:14;;;;;;;12.60;4.30;;;;;;;5.21;100.00;99878.50;103369;1293;60573;-87
2023/11/29 01:36:43;;;;;;;12.80;4.10;;;;;;;5.26;100.00;99873.13;103375;1290;60688;-89
2023/11/29 01:39:14;;;;;;;13.00;4.30;;;;;;;5.28;100.00;99872.25;103149;1289;60492;-87
2023/11/29 01:41:41;;;;;;;15.10;5.00;;;;;;;5.28;100.00;99870.66;102946;1287;61007;-88
2023/11/29 01:44:07;;;;;;;14.40;4.70;;;;;;;5.28;100.00;99863.55;103138;1287;60536;-87
2023/11/29 01:46:33;;;;;;;12.00;4.50;;;;;;;5.26;100.00;99861.89;103401;1287;60948;-89
2023/11/29 01:48:59;;;;;;;16.90;5.20;;;;;;;5.22;100.00;99854.48;103269;1291;61034;-89
2023/11/29 01:51:25;;;;;;;14.30;4.50;;;;;;;5.21;100.00;99851.57;103051;1287;60753;-85
2023/11/29 01:53:52;;;;;;;14.90;4.90;;;;;;;5.21;100.00;99856.77;103244;1287;60777;-87
2023/11/29 01:56:19;;;;;;;13.50;4.30;;;;;;;5.21;100.00;99863.16;103067;1287;60605;-89
2023/11/29 01:58:45;;;;;;;14.90;4.70;;;;;;;5.22;100.00;99855.66;103120;1292;61262;-85
2023/11/29 02:01:11;;;;;;;19.10;5.20;;;;;;;5.21;100.00;99852.27;103582;1287;60650;-86
2023/11/29 02:03:37;;;;;;;13.00;5.20;;;;;;;5.19;100.00;99851.50;103461;1291;60860;-89
2023/11/29 02:06:03;;;;;;;19.30;5.60;;;;;;;5.12;100.00;99856.23;103036;1295;60574;-88
2023/11/29 02:08:30;;;;;;;15.00;5.70;;;;;;;5.06;100.00;99854.65;103251;1283;60553;-88
2023/11/29 02:10:55;;;;;;;15.80;5.80;;;;;;;5.00;100.00;99853.80;103664;1285;73556;-86
2023/11/29 02:13:21;;;;;;;15.70;6.30;;;;;;;4.95;100.00;99847.63;103721;1283;60509;-88
2023/11/29 02:15:47;;;;;;;15.90;6.00;;;;;;;4.91;100.00;99851.77;103484;1290;60585;-86
2023/11/29 02:18:15;;;;;;;16.40;6.50;;;;;;;4.89;100.00;99844.00;103614;1287;60486;-87
2023/11/29 02:20:41;;;;;;;20.80;6.20;;;;;;;4.86;100.00;99838.06;103671;1286;60637;-87
2023/11/29 02:23:22;;;;;;;21.60;7.30;;;;;;;4.81;100.00;99835.64;103353;1286;60538;-87
2023/11/29 02:25:48;;;;;;;21.50;6.90;;;;;;;4.79;100.00;99827.48;103767;1286;73153;-87
2023/11/29 02:28:19;;;;;;;21.40;7.00;;;;;;;4.77;100.00;99829.43;103204;1289;60598;-87
2023/11/29 02:30:44;;;;;;;21.20;6.70;;;;;;;4.74;100.00;99825.80;103521;1286;60458;-85
2023/11/29 02:33:10;;;;;;;23.70;7.80;;;;;;;4.72;100.00;99817.48;103298;1290;60740;-87
2023/11/29 02:35:38;;;;;;;17.80;7.60;;;;;;;4.69;100.00;99813.34;103563;1287;60639;-84
2023/11/29 02:38:04;;;;;;;22.60;8.00;;;;;;;4.68;100.00;99810.16;103453;1290;60567;-87
2023/11/29 02:40:29;;;;;;;21.70;7.20;;;;;;;4.66;100.00;99804.20;103529;1287;60536;-87
2023/11/29 02:42:55;;;;;;;22.20;8.10;;;;;;;4.67;100.00;99794.89;103442;1286;60669;-89
2023/11/29 02:45:21;;;;;;;22.40;7.40;;;;;;;4.68;100.00;99795.81;103365;1286;60784;-86
2023/11/29 02:47:46;;;;;;;16.40;7.00;;;;;;;4.67;100.00;99792.27;103618;1284;60587;-87
2023/11/29 02:50:12;;;;;;;24.20;7.90;;;;;;;4.67;100.00;99785.95;103708;1287;60878;-86
2023/11/29 02:52:38;;;;;;;17.80;6.70;;;;;;;4.67;100.00;99791.57;103688;1283;60461;-88
2023/11/29 02:55:04;;;;;;;17.90;7.10;;;;;;;4.67;100.00;99783.03;103676;1283;60576;-84
2023/11/29 02:57:30;;;;;;;18.00;7.30;;;;;;;4.66;100.00;99779.91;103560;1286;60514;-86
2023/11/29 02:59:56;;;;;;;17.80;7.10;;;;;;;4.64;100.00;99777.05;103500;1290;60677;-86
2023/11/29 03:02:21;;;;;;;22.50;7.10;;;;;;;4.62;100.00;99768.12;103628;1286;60648;-87
2023/11/29 03:04:49;;;;;;;18.10;6.80;;;;;;;4.61;100.00;99763.29;103241;1289;61310;-86
2023/11/29 03:07:14;;;;;;;16.70;7.20;;;;;;;4.61;100.00;99757.09;103142;1287;74093;-91
2023/11/29 03:09:40;;;;;;;23.50;9.30;;;;;;;4.60;100.00;99755.53;103206;1293;60675;-85
2023/11/29 03:12:08;;;;;;;21.10;7.50;;;;;;;4.60;100.00;99757.62;103412;1287;60649;-82
2023/11/29 03:14:33;;;;;;;25.70;9.10;;;;;;;4.61;100.00;99743.69;103318;1292;60597;-84
2023/11/29 03:16:59;;;;;;;28.90;9.70;;;;;;;4.62;100.00;99734.05;103250;1293;60634;-84
2023/11/29 03:19:25;;;;;;;19.00;7.20;;;;;;;4.63;100.00;99731.14;103384;1287;60601;-90
2023/11/29 03:21:51;;;;;;;24.30;7.90;;;;;;;4.64;100.00;99728.34;103290;1292;60572;-83
2023/11/29 03:24:19;;;;;;;22.30;7.70;;;;;;;4.64;100.00;99719.42;103270;1293;60748;-84
2023/11/29 03:26:44;;;;;;;15.80;7.70;;;;;;;4.64;100.00;99713.44;103342;1288;60904;-89
2023/11/29 03:29:10;;;;;;;23.30;7.40;;;;;;;4.64;100.00;99709.86;103494;1287;60786;-83
2023/11/29 03:31:35;;;;;;;17.10;7.60;;;;;;;4.63;100.00;99706.16;103497;1288;60599;-84
2023/11/29 03:34:01;;;;;;;24.90;8.20;;;;;;;4.61;100.00;99698.35;103303;1288;60573;-86
2023/11/29 03:36:27;;;;;;;15.60;8.10;;;;;;;4.61;100.00;99693.10;103580;1283;60768;-83
2023/11/29 03:38:53;;;;;;;25.40;8.30;;;;;;;4.62;100.00;99686.44;103679;1287;60578;-81
2023/11/29 03:41:18;;;;;;;15.10;7.40;;;;;;;4.61;100.00;99677.84;103649;1283;60554;-82
2023/11/29 03:43:44;;;;;;;25.20;7.90;;;;;;;4.60;100.00;99675.92;103645;1288;60536;-87
2023/11/29 03:46:09;;;;;;;21.80;8.40;;;;;;;4.61;100.00;99667.65;103842;1284;60549;-83
2023/11/29 03:48:35;;;;;;;16.70;7.10;;;;;;;4.62;100.00;99670.01;103476;1290;60567;-85
2023/11/29 03:51:01;;;;;;;21.10;7.80;;;;;;;4.64;100.00;99666.69;103593;1283;60529;-83
2023/11/29 03:53:26;;;;;;;20.70;8.80;;;;;;;4.64;100.00;99659.27;103715;1287;60933;-83
2023/11/29 03:55:52;;;;;;;23.30;8.00;;;;;;;4.66;100.00;99654.83;103210;1286;60596;-83
2023/11/29 03:58:18;;;;;;;16.70;7.30;;;;;;;4.66;100.00;99655.25;103296;1287;60787;-83
2023/11/29 04:00:43;;;;;;;20.40;7.90;;;;;;;4.68;100.00;99647.16;103208;1287;73407;-83
2023/11/29 04:03:09;;;;;;;19.10;7.80;;;;;;;4.68;100.00;99645.52;103251;1287;60592;-83
2023/11/29 04:05:35;;;;;;;19.10;7.50;;;;;;;4.70;100.00;99634.77;103222;1288;60586;-82
2023/11/29 04:08:01;;;;;;;20.70;7.50;;;;;;;4.69;100.00;99635.48;103392;1288;60635;-83
2023/11/29 04:10:29;;;;;;;23.20;8.30;;;;;;;4.69;100.00;99628.70;103417;1287;60695;-84
2023/11/29 04:12:55;;;;;;;20.90;7.70;;;;;;;4.69;100.00;99622.58;103396;1287;62184;-84
2023/11/29 04:15:20;;;;;;;17.80;7.30;;;;;;;4.68;100.00;99624.66;103238;1287;60516;-83
2023/11/29 04:17:46;;;;;;;18.00;6.80;;;;;;;4.70;100.00;99618.38;103046;1292;60650;-83
2023/11/29 04:20:12;;;;;;;28.80;8.40;;;;;;;4.71;100.00;99616.46;103604;1291;60584;-83
2023/11/29 04:22:38;;;;;;;15.10;6.80;;;;;;;4.71;100.00;99611.57;103358;1291;74048;-83
2023/11/29 04:25:07;;;;;;;16.00;6.50;;;;;;;4.72;100.00;99606.17;103176;1286;60580;-82
2023/11/29 04:27:32;;;;;;;18.70;7.30;;;;;;;4.71;100.00;99602.64;103320;1285;60764;-83
2023/11/29 04:29:58;;;;;;;14.80;6.80;;;;;;;4.68;100.00;99591.62;103771;1284;60897;-83
2023/11/29 04:32:23;;;;;;;19.30;7.40;;;;;;;4.66;100.00;99594.45;103676;1284;60696;-83
2023/11/29 04:34:49;;;;;;;17.20;7.20;;;;;;;4.65;100.00;99588.67;103423;1284;60670;-83
2023/11/29 04:37:15;;;;;;;19.20;7.00;;;;;;;4.64;100.00;99588.03;103649;1285;60582;-85
2023/11/29 04:39:41;;;;;;;17.20;6.80;;;;;;;4.65;100.00;99578.70;103615;1283;60580;-84
2023/11/29 04:42:07;;;;;;;17.30;7.50;;;;;;;4.64;100.00;99568.77;103658;1283;60613;-82
2023/11/29 04:44:32;;;;;;;22.90;8.20;;;;;;;4.65;100.00;99567.02;103616;1283;60505;-83
2023/11/29 04:46:58;;;;;;;17.90;6.90;;;;;;;4.64;100.00;99562.09;103530;1284;60767;-83
2023/11/29 04:49:23;;;;;;;26.70;8.40;;;;;;;4.63;100.00;99548.10;103636;1287;60558;-83
2023/11/29 04:51:49;;;;;;;22.20;8.50;;;;;;;4.64;100.00;99549.98;103872;1284;60503;-83
2023/11/29 04:54:15;;;;;;;15.30;6.80;;;;;;;4.63;100.00;99544.79;103885;1283;60585;-87
2023/11/29 04:56:40;;;;;;;19.60;7.20;;;;;;;4.62;100.00;99539.87;103461;1283;60601;-83
2023/11/29 04:59:06;;;;;;;16.80;6.70;;;;;;;4.63;100.00;99531.70;103477;1286;62187;-82
2023/11/29 05:01:32;;;;;;;19.60;6.70;;;;;;;4.63;100.00;99532.39;103442;1290;60609;-83
2023/11/29 05:03:57;;;;;;;22.30;6.70;;;;;;;4.65;100.00;99525.92;103702;1288;60580;-83
2023/11/29 05:06:25;;;;;;;18.10;7.00;;;;;;;4.68;100.00;99524.26;103325;1286;60610;-83
2023/11/29 05:08:50;;;;;;;21.70;7.70;;;;;;;4.70;100.00;99524.65;103360;1286;61057;-83
2023/11/29 05:11:16;;;;;;;18.50;6.50;;;;;;;4.73;100.00;99518.44;103275;1288;60580;-80
2023/11/29 05:13:42;;;;;;;29.70;8.20;;;;;;;4.73;100.00;99512.79;103545;1288;60986;-84
2023/11/29 05:16:08;;;;;;;20.10;7.40;;;;;;;4.77;100.00;99508.95;103371;1287;60611;-81
2023/11/29 05:18:33;;;;;;;15.20;6.20;;;;;;;4.82;100.00;99508.30;103451;1286;60588;-83
2023/11/29 05:20:59;;;;;;;22.70;6.30;;;;;;;4.84;100.00;99500.75;103565;1288;60585;-82
2023/11/29 05:23:26;;;;;;;21.90;6.90;;;;;;;4.87;100.00;99498.59;103476;1285;60582;-89
2023/11/29 05:25:52;;;;;;;15.70;6.00;;;;;;;4.88;100.00;99498.39;103371;1287;76000;-82
2023/11/29 05:28:26;;;;;;;20.80;6.10;;;;;;;4.89;100.00;99487.47;103547;1289;60425;-83
2023/11/29 05:30:53;;;;;;;26.00;6.40;;;;;;;4.93;100.00;99488.52;103590;1284;62864;-83
2023/11/29 05:33:23;;;;;;;18.50;6.90;;;;;;;4.96;100.00;99476.64;103748;1283;61131;-83
2023/11/29 05:35:49;;;;;;;19.00;5.80;;;;;;;4.97;100.00;99479.81;103801;1283;73442;-83
2023/11/29 05:38:15;;;;;;;14.40;5.50;;;;;;;4.98;100.00;99469.04;103743;1284;62176;-83
2023/11/29 05:40:41;;;;;;;21.70;6.50;;;;;;;4.98;100.00;99465.35;103717;1287;60478;-83
2023/11/29 05:43:06;;;;;;;18.30;5.90;;;;;;;4.99;100.00;99459.83;103615;1283;60569;-83
2023/11/29 05:45:32;;;;;;;17.70;5.60;;;;;;;5.02;100.00;99451.08;103720;1283;60537;-82
2023/11/29 05:47:58;;;;;;;16.10;5.30;;;;;;;5.04;100.00;99445.23;103752;1283;60534;-81
2023/11/29 05:50:23;;;;;;;13.60;5.80;;;;;;;5.08;100.00;99438.01;103668;1283;73490;-83
2023/11/29 05:52:49;;;;;;;17.40;6.20;;;;;;;5.13;100.00;99437.25;103672;1284;60607;-82
2023/11/29 05:55:15;;;;;;;19.80;5.90;;;;;;;5.16;100.00;99429.11;103662;1284;60528;-83
2023/11/29 05:57:44;;;;;;;16.10;5.70;;;;;;;5.18;100.00;99424.86;103875;1283;60445;-83
2023/11/29 06:00:11;;;;;;;17.40;5.30;;;;;;;5.21;100.00;99420.19;103788;1283;74077;-83
2023/11/29 06:56:14;;;;;;;15.60;4.20;;;;;;;7.50;100.00;99306.70;106607;1261;1023527;-86
2023/11/29 06:58:40;;;;;;;9.40;3.70;;;;;;;7.47;100.00;99284.61;109812;1257;58451;-86
2023/11/29 07:01:10;;;;;;;15.60;3.90;;;;;;;7.39;100.00;99285.27;109871;1257;58598;-85
2023/11/29 07:03:35;;;;;;;12.60;3.50;;;;;;;7.44;100.00;99280.97;109514;1257;72098;-87
2023/11/29 07:06:02;;;;;;;11.60;3.60;;;;;;;7.39;100.00;99282.75;109531;1257;58073;-87
2023/11/29 07:08:30;;;;;;;14.00;3.80;;;;;;;7.51;100.00;99278.48;109879;1257;58057;-86
2023/11/29 07:14:18;;;;;;;11.20;3.00;;;;;;;7.21;100.00;99277.63;109877;1257;70746;-85
2023/11/29 07:16:47;;;;;;;11.90;3.50;;;;;;;7.19;100.00;99277.80;109812;1257;58200;-87
2023/11/29 07:19:13;;;;;;;11.50;5.10;;;;;;;7.17;100.00;99275.39;109360;1260;72190;-86
2023/11/29 07:21:39;;;;;;;12.20;3.40;;;;;;;7.19;100.00;99273.84;109646;1257;58101;-85
2023/11/29 07:24:07;;;;;;;9.60;3.70;;;;;;;7.17;100.00;99265.64;109842;1257;57886;-84
2023/11/29 07:26:33;;;;;;;16.90;3.80;;;;;;;7.10;100.00;99272.23;109809;1257;72784;-84
2023/11/29 07:29:02;;;;;;;16.20;4.90;;;;;;;7.18;100.00;99249.77;109832;1257;58039;-84
2023/11/29 07:31:27;;;;;;;20.40;5.50;;;;;;;7.23;100.00;99252.82;109708;1257;71163;-83
2023/11/29 07:33:53;;;;;;;12.20;5.80;;;;;;;7.27;100.00;99244.18;109873;1257;58094;-83
2023/11/29 07:36:19;;;;;;;18.40;6.60;;;;;;;7.23;100.00;99249.97;109886;1257;57976;-82
2023/11/29 07:38:45;;;;;;;26.80;5.40;;;;;;;7.20;100.00;99254.58;109808;1257;58458;-83
2023/11/29 08:10:22;;;;;;;16.60;4.10;;;;;;;7.10;100.00;99196.90;106075;1263;70535;-83
2023/11/29 08:12:59;;;;;;;;;;;;;;;;;;;;;
2023/11/29 08:56:46;;;;;;;29.70;6.60;;;;;;;7.31;100.00;99075.85;107115;1265;60371;-83
2023/11/29 09:03:06;;;;;;;17.60;5.00;;;;;;;7.38;100.00;99066.90;106914;1272;73340;-83
2023/11/29 09:05:31;;;;;;;10.40;3.30;;;;;;;7.35;100.00;99058.29;106920;1271;71524;-83
2023/11/29 09:08:43;;;;;;;17.90;3.90;;;;;;;7.32;100.00;99058.04;106240;1271;59506;-84
2023/11/29 09:11:25;;;;;;;15.20;3.80;;;;;;;7.41;100.00;99046.09;106570;1273;60294;-82
2023/11/29 09:14:15;;;;;;;10.20;3.30;;;;;;;7.39;100.00;99042.36;106780;1273;72089;-84
2023/11/29 09:28:08;;;;;;;;;;;;;;;;;;;;;
2023/11/29 09:41:27;;;;;;;14.90;2.80;;;;;;;8.04;100.00;98992.91;103204;1285;613107;-83
2023/11/29 09:43:53;;;;;;;12.00;4.00;;;;;;;8.03;100.00;98994.91;103002;1288;170503;-82
2023/11/29 09:46:19;;;;;;;10.10;4.40;;;;;;;8.02;100.00;98994.80;103047;1288;61955;-82
2023/11/29 09:51:54;;;;;;;10.50;3.30;;;;;;;8.07;100.00;98989.73;102810;1292;602897;-82
2023/11/29 09:54:20;;;;;;;7.30;3.20;;;;;;;8.04;100.00;98988.36;103033;1294;60243;-83
2023/11/29 09:56:46;;;;;;;7.70;3.00;;;;;;;8.07;100.00;98975.39;102622;1301;60802;-82
2023/11/29 09:59:11;;;;;;;9.70;3.00;;;;;;;8.07;100.00;98963.91;102755;1295;60487;-83
2023/11/29 10:01:38;;;;;;;9.90;2.90;;;;;;;8.17;100.00;98957.21;102791;1295;60529;-82
2023/11/29 10:04:09;;;;;;;5.30;2.60;;;;;;;8.21;100.00;98952.88;102770;1295;60443;-83
2023/11/29 10:06:52;;;;;;;5.40;2.40;;;;;;;8.31;100.00;98948.16;103066;1296;600266;-86
2023/11/29 10:09:18;;;;;;;8.30;2.30;;;;;;;8.35;100.00;98942.84;103241;1291;60335;-85
2023/11/29 10:11:44;;;;;;;7.70;2.30;;;;;;;8.47;100.00;98941.02;103121;1293;60563;-86
2023/11/29 10:14:11;;;;;;;6.60;1.70;;;;;;;8.51;100.00;98936.58;103219;1289;60440;-85
2023/11/29 10:16:37;;;;;;;2.20;1.00;;;;;;;8.56;100.00;98937.33;103070;1302;60352;-86
2023/11/29 10:19:04;;;;;;;4.30;1.30;;;;;;;8.66;100.00;98939.79;103194;1288;60456;-86
2023/11/29 10:21:33;;;;;;;3.50;1.40;;;;;;;8.73;100.00;98944.21;103222;1292;475086;-85
2023/11/29 10:23:58;;;;;;;3.50;1.40;;;;;;;8.78;100.00;98944.40;103210;1285;60357;-86
2023/11/29 10:26:25;;;;;;;3.50;1.90;;;;;;;8.88;100.00;98946.48;103108;1303;60374;-86
2023/11/29 10:28:53;;;;;;;4.00;1.80;;;;;;;8.95;100.00;98944.67;102921;1294;60394;-86
2023/11/29 10:31:21;;;;;;;4.70;2.50;;;;;;;9.03;100.00;98945.64;103060;1295;71522;-85
2023/11/29 10:33:51;;;;;;;6.00;2.50;;;;;;;9.18;100.00;98946.70;103104;1293;61257;-85
2023/11/29 10:36:20;;;;;;;4.90;2.40;;;;;;;9.18;100.00;98947.67;103000;1289;60277;-85
2023/11/29 10:38:56;;;;;;;7.40;2.50;;;;;;;9.08;100.00;98951.20;103172;1290;74347;-83
2023/11/29 10:41:24;;;;;;;6.00;3.00;;;;;;;9.16;100.00;98949.42;103304;1292;73567;-83
2023/11/29 10:43:53;;;;;;;8.90;3.60;;;;;;;9.23;100.00;98943.31;103145;1294;72726;-86
2023/11/29 10:46:28;;;;;;;9.40;4.00;;;;;;;9.27;100.00;98943.50;103117;1294;62759;-86
2023/11/29 10:49:19;;;;;;;9.50;4.70;;;;;;;9.31;100.00;98953.71;103052;1295;60733;-84
2023/11/29 10:51:50;;;;;;;11.70;5.30;;;;;;;9.31;100.00;98952.70;103340;1295;73032;-85
2023/11/29 10:54:18;;;;;;;10.80;4.70;;;;;;;9.36;100.00;98956.77;103197;1292;75316;-85
2023/11/29 10:56:48;;;;;;;11.10;4.40;;;;;;;9.43;100.00;98964.73;103342;1290;72973;-84
2023/11/29 10:59:26;;;;;;;13.40;5.80;;;;;;;9.44;100.00;98962.34;103132;1289;60820;-87
2023/11/29 11:01:56;;;;;;;12.70;6.00;;;;;;;9.44;100.00;98962.66;103576;1289;60981;-86
2023/11/29 11:04:27;;;;;;;16.20;6.60;;;;;;;9.52;100.00;98966.45;103127;1289;73510;-85
2023/11/29 11:06:55;;;;;;;23.40;8.20;;;;;;;9.55;100.00;98967.13;103317;1295;72371;-86
2023/11/29 11:09:33;;;;;;;26.00;9.10;;;;;;;9.60;100.00;98967.80;103525;1287;73236;-85
2023/11/29 11:12:00;;;;;;;31.10;9.70;;;;;;;9.70;100.00;98966.94;103856;1298;60429;-85
2023/11/29 11:14:31;;;;;;;20.40;8.40;;;;;;;9.71;100.00;98975.25;103553;1292;61253;-85
2023/11/29 11:20:20;;;;;;;23.00;8.90;;;;;;;9.98;100.00;98976.20;103507;1289;601645;-84
2023/11/29 11:22:48;;;;;;;27.60;9.60;;;;;;;9.94;100.00;98976.53;103654;1292;60319;-85
2023/11/29 11:25:16;;;;;;;29.10;11.80;;;;;;;9.99;100.00;98978.72;103563;1289;60354;-84
2023/11/29 11:27:43;;;;;;;29.00;12.10;;;;;;;10.05;100.00;98985.58;103613;1292;74594;-86
2023/11/29 11:30:17;;;;;;;41.10;13.00;;;;;;;10.09;100.00;98992.13;103423;1292;74689;-85
2023/11/29 11:32:50;;;;;;;30.60;10.70;;;;;;;10.13;100.00;99000.13;103479;1289;73980;-86
2023/11/29 11:35:16;;;;;;;32.20;12.00;;;;;;;10.20;100.00;99006.40;103605;1286;61061;-85
2023/11/29 11:37:47;;;;;;;49.40;16.20;;;;;;;10.28;100.00;99011.55;103859;1286;61059;-83
2023/11/29 11:40:14;;;;;;;77.10;23.40;;;;;;;10.40;100.00;99014.16;103629;1292;72838;-84
2023/11/29 11:42:41;;;;;;;69.00;22.20;;;;;;;10.40;100.00;99013.89;103705;1286;74884;-83
2023/11/29 11:45:08;;;;;;;88.30;24.90;;;;;;;10.45;100.00;99016.92;103686;1286;74097;-83
2023/11/29 11:51:02;;;;;;;95.00;25.90;;;;;;;10.63;100.00;99018.51;102899;1292;600352;-83
2023/11/29 11:53:27;;;;;;;53.40;17.60;;;;;;;10.77;100.00;99022.27;103087;1291;61362;-83
2023/11/29 11:55:53;;;;;;;58.80;19.20;;;;;;;10.88;100.00;99028.33;103240;1288;60293;-84
2023/11/29 11:58:19;;;;;;;55.60;18.60;;;;;;;10.98;100.00;99028.65;102907;1290;60719;-84
2023/11/29 12:00:47;;;;;;;57.80;18.00;;;;;;;11.09;100.00;99033.19;103032;1293;60287;-83
2023/11/29 12:03:14;;;;;;;45.70;17.00;;;;;;;11.07;100.00;99038.68;103288;1292;60390;-84
2023/11/29 12:05:41;;;;;;;37.40;14.50;;;;;;;11.01;100.00;99046.34;103064;1286;436491;-84
2023/11/29 12:08:10;;;;;;;48.20;15.60;;;;;;;10.92;100.00;99048.29;103195;1285;60216;-81
2023/11/29 12:10:38;;;;;;;44.90;15.30;;;;;;;10.85;100.00;99056.62;102993;1285;70762;-84
2023/11/29 12:13:05;;;;;;;49.00;14.90;;;;;;;10.79;100.00;99062.50;103305;1285;74666;-83
2023/11/29 12:15:37;;;;;;;43.90;14.50;;;;;;;10.78;100.00;99070.61;103199;1290;72725;-83
2023/11/29 12:18:12;;;;;;;37.30;15.50;;;;;;;10.74;100.00;99073.60;103188;1285;61360;-84
2023/11/29 12:20:38;;;;;;;46.90;15.40;;;;;;;10.68;100.00;99078.56;103434;1286;60306;-84
2023/11/29 12:23:04;;;;;;;37.50;14.00;;;;;;;10.59;100.00;99079.68;103335;1294;60359;-85
2023/11/29 12:25:29;;;;;;;44.40;17.20;;;;;;;10.52;100.00;99088.21;103244;1288;60311;-83
2023/11/29 12:27:57;;;;;;;35.60;14.80;;;;;;;10.50;100.00;99095.75;102994;1294;60470;-84
2023/11/29 12:30:23;;;;;;;49.20;17.20;;;;;;;10.43;100.00;99106.46;103140;1291;60616;-85
2023/11/29 12:32:51;;;;;;;41.70;16.20;;;;;;;10.33;100.00;99112.79;103060;1294;60361;-84
2023/11/29 12:35:20;;;;;;;38.10;15.70;;;;;;;10.27;100.00;99123.58;103003;1288;60395;-84
